LLSDLLHA

Guest
Details From LLSD - Sde Dov
To LLHA - Haifa
Flight Number -
Tags generated
Created
Modified
Stats Distance 45 nm / 83 km
Max Altitude 2,000 ft / 610 m
Waypoints 3
Social Downloads 4
Likes 0
Share VATSIM

Download

Looking for another format? Having issues loading an existing format? Contact us
Advertisement - Login to hide

Notes

Basic altitude profile: - Ascent Rate: 2500ft/min - Ascent Speed: 250kts - Cruise Altitude: 35000ft - Cruise Speed: 420kts - Descent Rate: 1500ft/min - Descent Speed: 250kts Options: - Use NATs: yes - Use PACOTS: yes - Use low airways: yes - Use high airways: yes

Route

LLSD ATLIT LLHA

ID Type Via Altitude Latitude Longitude Leg Dist Tot Dist Heading (true) Name
O LLSD APT - 0 ft / 0 m 32.11466˚ 34.78224˚ - 0 nm - Sde Dov
ATLIT FIX - 2,000 ft / 610 m 32.69646˚ 34.91495˚ 35 nm 35 nm 11° / 11° -
O LLHA APT - 0 ft / 0 m 32.81113˚ 35.04414˚ 9 nm 45 nm 43° / 43° Haifa

Altitude Profile

Advertisement - Login to hide

LLSD

Details ICAO LLSD (SDV)
Name Sde Dov
Region Israel
Timezone Asia/Jerusalem (UTC+2.0)
Stats Elevation 43 ft / 13 m (AMSL)
Location 32.114661° 34.782238°
Runways 1
Magnetic Variation 4.697° E

METAR

LLSD 141250Z 28010KT 9999 FEW032 21/13 Q1018 RMK SCT057

Decode

TAF

TAF LLSD 141112Z 1412/1512 29010KT 9999 SCT035 BECMG 1416/1419 VRB04KT PROB40 1500/1507 16005KT -RA BKN035 BECMG 1507/1508 29008KT TX21/1412Z TN15/1504Z

Decode

Departure Runways

ID Width Length Bearing (true) Bearing (mag) Surface Threshold Offset Overrun Length
03 98 ft / 30 m 5,704 ft / 1,738 m 27.61° 22.91° Asphalt 341 ft / 104 m 0 ft / 0 m
21 98 ft / 30 m 5,704 ft / 1,738 m 207.61° 202.91° Asphalt 230 ft / 70 m 0 ft / 0 m

LLHA

Details ICAO LLHA (HFA)
Name Haifa
Region Israel
Timezone Asia/Jerusalem (UTC+2.0)
Stats Elevation 28 ft / 9 m (AMSL)
Location 32.811125° 35.044139°
Runways 1
Magnetic Variation 4.781° E

METAR

LLHA 141250Z 29006KT 260V330 9999 FEW025 SCT045 20/13 Q1018

Decode

TAF

TAF LLHA 141115Z 1412/1512 30008KT 9999 SCT035 PROB40 1422/1508 15005KT -RA BKN030 TX20/1412Z TN14/1504Z

Decode

Destination Runways

ID Width Length Bearing (true) Bearing (mag) Surface Threshold Offset Overrun Length
16 98 ft / 30 m 4,161 ft / 1,268 m 158.88° 154.10° Asphalt 164 ft / 50 m 0 ft / 0 m
34 98 ft / 30 m 4,161 ft / 1,268 m 338.88° 334.10° Asphalt 380 ft / 116 m 90 ft / 27 m

Popular Alternatives